createdAt,value
2019-01-24T00:02:15.839Z,97364.96
2019-01-24T00:07:21.053Z,97358.06
2019-01-24T00:12:26.648Z,97368.91
2019-01-24T00:17:32.234Z,97372.44
2019-01-24T00:22:37.812Z,97371.95
2019-01-24T00:27:43.004Z,97382.33
2019-01-24T00:32:48.519Z,97382.50
2019-01-24T00:37:54.146Z,97390.59
2019-01-24T00:42:59.401Z,97392.09
2019-01-24T00:48:04.890Z,97388.84
2019-01-24T00:53:10.089Z,97397.25
2019-01-24T00:58:15.932Z,97407.41
2019-01-24T01:03:21.127Z,97398.76
2019-01-24T01:08:26.850Z,97404.88
2019-01-24T01:13:33.017Z,97398.16
2019-01-24T01:18:39.011Z,97405.09
2019-01-24T01:23:45.552Z,97413.70
2019-01-24T01:28:50.736Z,97411.04
2019-01-24T01:33:55.927Z,97423.92
2019-01-24T01:39:01.496Z,97425.20
2019-01-24T01:44:07.059Z,97425.98
2019-01-24T01:49:12.248Z,97434.70
2019-01-24T01:54:17.448Z,97442.56
2019-01-24T01:59:22.980Z,97447.97
2019-01-24T02:04:28.285Z,97442.30
2019-01-24T02:09:33.778Z,97442.19
2019-01-24T02:14:39.000Z,97437.83
2019-01-24T02:19:44.222Z,97421.73
2019-01-24T02:24:49.430Z,97433.50
2019-01-24T02:29:54.633Z,97436.20
2019-01-24T02:34:59.824Z,97440.41
2019-01-24T02:40:06.368Z,97434.05
2019-01-24T02:45:13.962Z,97444.24
2019-01-24T02:50:20.769Z,97442.68
2019-01-24T02:55:25.959Z,97452.52
2019-01-24T03:00:31.215Z,97461.46
2019-01-24T03:05:36.704Z,97466.94
2019-01-24T03:10:42.036Z,97464.97
2019-01-24T03:15:47.703Z,97465.80
2019-01-24T03:20:52.908Z,97462.64
2019-01-24T03:25:59.189Z,97467.84
2019-01-24T03:31:05.033Z,97470.98
2019-01-24T03:36:10.261Z,97469.60
2019-01-24T03:41:15.451Z,97468.67
2019-01-24T03:46:20.643Z,97472.19
2019-01-24T03:51:25.837Z,97476.05
2019-01-24T03:56:31.031Z,97469.77
2019-01-24T04:01:36.223Z,97463.47
2019-01-24T04:06:41.431Z,97474.84
2019-01-24T04:11:46.741Z,97480.13
2019-01-24T04:16:52.309Z,97480.69
2019-01-24T04:21:57.512Z,97488.83
2019-01-24T04:27:03.158Z,97494.45
2019-01-24T04:32:08.352Z,97497.95
2019-01-24T04:37:13.536Z,97496.75
2019-01-24T04:42:19.736Z,97499.83
2019-01-24T04:47:25.340Z,97502.73
2019-01-24T04:52:30.900Z,97511.88
2019-01-24T04:57:36.253Z,97509.89
2019-01-24T05:02:41.466Z,97511.09
2019-01-24T05:07:46.664Z,97520.39
2019-01-24T05:12:52.993Z,97525.79
2019-01-24T05:17:58.593Z,97523.90
2019-01-24T05:23:03.800Z,97525.88
2019-01-24T05:28:09.005Z,97528.12
2019-01-24T05:33:15.041Z,97533.51
2019-01-24T05:38:20.235Z,97539.13
2019-01-24T05:43:25.727Z,97550.27
2019-01-24T05:48:32.723Z,97568.50
2019-01-24T05:53:37.925Z,97566.20
2019-01-24T05:58:43.528Z,97571.86
2019-01-24T06:03:49.042Z,97578.66
2019-01-24T06:08:55.034Z,97566.84
2019-01-24T06:14:00.255Z,97577.60
2019-01-24T06:19:05.681Z,97585.94
2019-01-24T06:24:11.244Z,97589.58
2019-01-24T06:29:16.569Z,97591.47
2019-01-24T06:34:21.775Z,97599.81
2019-01-24T06:39:27.071Z,97606.86
2019-01-24T06:44:32.213Z,97604.50
2019-01-24T06:49:38.562Z,97607.77
2019-01-24T06:54:44.041Z,97615.69
2019-01-24T06:59:49.318Z,97623.16
2019-01-24T07:04:54.536Z,97632.50
2019-01-24T07:10:00.152Z,97636.73
2019-01-24T07:15:07.072Z,97636.47
2019-01-24T07:20:12.831Z,97634.94
2019-01-24T07:25:23.657Z,97642.67
2019-01-24T07:30:29.260Z,97650.63
2019-01-24T07:35:34.468Z,97650.14
2019-01-24T07:40:39.943Z,97658.10
2019-01-24T07:45:45.152Z,97667.69
2019-01-24T07:50:50.454Z,97673.53
2019-01-24T07:55:55.687Z,97676.34
2019-01-24T08:01:00.884Z,97681.59
2019-01-24T08:06:09.256Z,97688.59
2019-01-24T08:11:13.556Z,97692.08
2019-01-24T08:16:19.156Z,97688.81
2019-01-24T08:21:24.555Z,97693.84
2019-01-24T08:26:29.756Z,97700.05
2019-01-24T08:31:34.998Z,97698.72
2019-01-24T08:36:40.320Z,97694.80
2019-01-24T08:41:47.618Z,97697.96
2019-01-24T08:46:52.819Z,97704.09
2019-01-24T08:51:58.584Z,97710.62
2019-01-24T08:57:03.777Z,97715.55
2019-01-24T09:02:09.092Z,97719.42
2019-01-24T09:07:14.302Z,97724.63
2019-01-24T09:12:19.540Z,97716.41
2019-01-24T09:17:24.954Z,97720.37
2019-01-24T09:22:30.524Z,97715.95
2019-01-24T09:27:36.052Z,97712.59
2019-01-24T09:32:41.388Z,97713.36
2019-01-24T09:37:46.588Z,97721.41
2019-01-24T09:42:51.808Z,97729.87
2019-01-24T09:47:59.467Z,97737.78
2019-01-24T09:53:04.678Z,97747.86
2019-01-24T09:58:09.952Z,97751.97
2019-01-24T10:03:15.943Z,97746.95
2019-01-24T10:08:21.504Z,97756.56
2019-01-24T10:13:26.708Z,97756.16
2019-01-24T10:18:32.141Z,97748.62
2019-01-24T10:23:37.715Z,97754.26
2019-01-24T10:28:43.023Z,97754.14
2019-01-24T10:33:48.688Z,97757.94
2019-01-24T10:38:53.885Z,97746.42
2019-01-24T10:43:59.449Z,97738.23
2019-01-24T10:49:04.754Z,97745.94
2019-01-24T10:54:09.959Z,97742.83
2019-01-24T10:59:15.425Z,97741.47
2019-01-24T11:04:20.719Z,97749.00
2019-01-24T11:09:26.348Z,97740.05
2019-01-24T11:14:31.571Z,97744.77
2019-01-24T11:19:36.814Z,97745.80
2019-01-24T11:24:42.033Z,97740.84
2019-01-24T11:29:47.678Z,97749.44
2019-01-24T11:34:52.910Z,97741.10
2019-01-24T11:39:58.123Z,97747.38
2019-01-24T11:45:03.324Z,97746.70
2019-01-24T11:50:13.062Z,97745.81
2019-01-24T11:55:19.667Z,97745.20
2019-01-24T12:00:39.556Z,97748.41
2019-01-24T12:05:44.759Z,97748.61
2019-01-24T12:10:49.970Z,97748.73
2019-01-24T12:15:55.202Z,97747.89
2019-01-24T12:21:00.395Z,97745.20
2019-01-24T12:26:06.080Z,97749.97
2019-01-24T12:31:11.365Z,97739.29
2019-01-24T12:36:17.253Z,97742.25
2019-01-24T12:41:22.488Z,97735.25
2019-01-24T12:46:27.987Z,97735.67
2019-01-24T12:51:33.194Z,97734.73
2019-01-24T12:56:38.523Z,97740.01
2019-01-24T13:01:44.038Z,97733.08
2019-01-24T13:06:49.240Z,97737.37
2019-01-24T13:11:54.442Z,97740.48
2019-01-24T13:17:00.079Z,97735.24
2019-01-24T13:22:05.779Z,97729.70
2019-01-24T13:27:11.357Z,97734.67
2019-01-24T13:32:16.579Z,97741.72
2019-01-24T13:37:25.792Z,97742.39
2019-01-24T13:42:28.687Z,97745.55
2019-01-24T13:47:34.267Z,97746.44
2019-01-24T13:52:39.470Z,97750.20
2019-01-24T13:57:44.782Z,97748.45
2019-01-24T14:02:52.247Z,97751.62
2019-01-24T14:07:57.500Z,97754.77
2019-01-24T14:13:02.737Z,97761.19
2019-01-24T14:18:08.086Z,97770.55
2019-01-24T14:23:13.288Z,97763.89
2019-01-24T14:28:18.513Z,97764.92
2019-01-24T14:33:23.868Z,97775.06
2019-01-24T14:38:29.139Z,97779.09
2019-01-24T14:43:34.776Z,97795.45
2019-01-24T14:48:40.108Z,97802.40
2019-01-24T14:53:45.305Z,97802.08
2019-01-24T14:58:50.508Z,97807.04
2019-01-24T15:03:55.832Z,97804.45
2019-01-24T15:09:01.068Z,97806.44
2019-01-24T15:14:06.576Z,97815.82
2019-01-24T15:19:12.511Z,97823.27
2019-01-24T15:24:17.861Z,97827.55
2019-01-24T15:29:23.478Z,97829.67
2019-01-24T15:34:28.691Z,97825.90
2019-01-24T15:39:34.204Z,97838.77
2019-01-24T15:44:39.875Z,97843.77
2019-01-24T15:49:45.079Z,97831.69
2019-01-24T15:54:50.640Z,97832.77
2019-01-24T15:59:55.897Z,97839.77
2019-01-24T16:05:01.746Z,97838.16
2019-01-24T16:10:10.419Z,97840.20
2019-01-24T16:15:18.547Z,97841.75
2019-01-24T16:20:24.818Z,97847.81
2019-01-24T16:25:31.596Z,97857.94
2019-01-24T16:30:37.563Z,97870.80
2019-01-24T16:35:42.911Z,97867.88
2019-01-24T16:40:49.068Z,97873.45
2019-01-24T16:45:54.663Z,97882.97
2019-01-24T16:51:01.225Z,97888.97
2019-01-24T16:56:06.651Z,97890.03
2019-01-24T17:01:22.236Z,97890.17
2019-01-24T17:06:27.443Z,97887.38
2019-01-24T17:11:33.055Z,97886.69
2019-01-24T17:16:39.428Z,97890.34
2019-01-24T17:21:44.639Z,97893.06
2019-01-24T17:26:50.211Z,97886.60
2019-01-24T17:31:55.888Z,97892.84
2019-01-24T17:37:01.324Z,97896.39
2019-01-24T17:42:06.850Z,97899.22
2019-01-24T17:47:12.043Z,97912.29
2019-01-24T17:52:17.455Z,97905.36
2019-01-24T17:57:23.117Z,97916.64
2019-01-24T18:02:29.184Z,97922.41
2019-01-24T18:07:34.454Z,97921.62
2019-01-24T18:12:39.910Z,97938.42
2019-01-24T18:17:46.475Z,97942.30
2019-01-24T18:22:52.082Z,97956.11
2019-01-24T18:27:57.272Z,97959.88
2019-01-24T18:33:02.477Z,97959.88
2019-01-24T18:38:08.642Z,97960.59
2019-01-24T18:43:20.655Z,97958.74
2019-01-24T18:48:25.902Z,97962.29
2019-01-24T18:53:31.451Z,97974.86
2019-01-24T18:58:38.235Z,97979.89
2019-01-24T19:03:44.594Z,97980.72
2019-01-24T19:08:49.871Z,97987.27
2019-01-24T19:13:55.084Z,97995.39
2019-01-24T19:19:00.310Z,97993.41
2019-01-24T19:24:05.626Z,97990.59
2019-01-24T19:29:10.833Z,98000.70
2019-01-24T19:34:16.051Z,98010.12
2019-01-24T19:39:21.408Z,98005.88
2019-01-24T19:44:27.693Z,98010.36
2019-01-24T19:49:33.110Z,98012.94
2019-01-24T19:54:38.313Z,98011.32
2019-01-24T19:59:43.519Z,98011.92
2019-01-24T20:04:48.735Z,98014.61
2019-01-24T20:09:53.939Z,98023.19
2019-01-24T20:14:59.343Z,98025.08
2019-01-24T20:20:06.435Z,98026.73
2019-01-24T20:25:14.044Z,98029.42
2019-01-24T20:30:24.219Z,98033.90
2019-01-24T20:35:41.169Z,98039.56
2019-01-24T20:40:46.666Z,98044.73
2019-01-24T20:45:51.867Z,98051.80
2019-01-24T20:50:57.358Z,98047.42
2019-01-24T20:56:03.663Z,98041.23
2019-01-24T21:01:10.011Z,98048.16
2019-01-24T21:06:16.251Z,98050.73
2019-01-24T21:11:21.819Z,98059.55
2019-01-24T21:16:27.042Z,98060.98
2019-01-24T21:21:32.244Z,98060.64
2019-01-24T21:26:37.891Z,98064.42
2019-01-24T21:31:43.409Z,98067.01
2019-01-24T21:36:48.612Z,98071.34
2019-01-24T21:41:53.814Z,98067.80
2019-01-24T21:46:59.485Z,98075.69
2019-01-24T21:52:04.903Z,98074.77
2019-01-24T21:57:10.104Z,98076.05
2019-01-24T22:02:15.708Z,98074.16
2019-01-24T22:07:21.392Z,98072.87
2019-01-24T22:12:26.915Z,98081.55
2019-01-24T22:17:32.847Z,98078.73
2019-01-24T22:22:38.776Z,98073.70
2019-01-24T22:27:44.620Z,98078.17
2019-01-24T22:32:50.314Z,98075.84
2019-01-24T22:37:55.691Z,98070.31
2019-01-24T22:43:00.898Z,98065.75
2019-01-24T22:48:07.461Z,98058.48
2019-01-24T22:53:13.049Z,98063.42
2019-01-24T22:58:18.537Z,98063.91
2019-01-24T23:03:33.150Z,98068.48
2019-01-24T23:08:39.250Z,98065.91
2019-01-24T23:13:44.536Z,98067.19
2019-01-24T23:18:50.411Z,98065.20
2019-01-24T23:23:55.948Z,98058.31
2019-01-24T23:29:01.643Z,98069.94
2019-01-24T23:34:07.407Z,98065.36
2019-01-24T23:39:12.608Z,98061.62
2019-01-24T23:44:17.803Z,98068.41
2019-01-24T23:49:23.771Z,98070.05
2019-01-24T23:54:29.331Z,98065.25
2019-01-24T23:59:34.662Z,98067.61
